createdAt,value
2022-11-13T00:01:09.077Z,9.07
2022-11-13T00:11:29.561Z,9.01
2022-11-13T00:21:49.804Z,8.91
2022-11-13T00:32:10.480Z,8.95
2022-11-13T00:42:31.460Z,9.09
2022-11-13T00:52:51.598Z,9.20
2022-11-13T01:03:13.174Z,9.13
2022-11-13T01:13:34.657Z,8.98
2022-11-13T01:23:56.422Z,9.02
2022-11-13T01:34:16.859Z,9.14
2022-11-13T01:44:46.984Z,9.09
2022-11-13T01:55:17.837Z,8.95
2022-11-13T02:05:38.417Z,9.01
2022-11-13T02:16:00.108Z,9.07
2022-11-13T02:26:22.827Z,8.99
2022-11-13T02:36:43.476Z,8.83
2022-11-13T02:47:04.160Z,8.89
2022-11-13T02:57:24.757Z,9.05
2022-11-13T03:07:45.227Z,9.00
2022-11-13T03:18:06.908Z,8.89
2022-11-13T03:28:27.651Z,8.95
2022-11-13T03:38:48.536Z,9.02
2022-11-13T03:49:09.743Z,8.93
2022-11-13T03:59:30.129Z,8.79
2022-11-13T04:09:50.665Z,8.82
2022-11-13T04:20:11.868Z,8.79
2022-11-13T04:30:32.176Z,8.51
2022-11-13T04:41:12.451Z,8.23
2022-11-13T04:51:33.093Z,8.15
2022-11-13T05:01:55.699Z,8.17
2022-11-13T05:12:16.038Z,8.31
2022-11-13T05:22:36.549Z,8.35
2022-11-13T05:32:57.185Z,8.29
2022-11-13T05:43:17.854Z,8.34
2022-11-13T05:53:39.092Z,8.45
2022-11-13T06:04:01.417Z,8.43
2022-11-13T06:14:22.171Z,8.45
2022-11-13T06:24:42.938Z,8.71
2022-11-13T06:35:03.617Z,9.13
2022-11-13T06:45:24.009Z,9.31
2022-11-13T06:55:47.457Z,9.34
2022-11-13T07:06:14.115Z,9.59
2022-11-13T07:16:56.293Z,10.16
2022-11-13T07:27:16.025Z,10.78
2022-11-13T07:37:37.232Z,11.17
2022-11-13T07:48:01.964Z,11.49
2022-11-13T07:58:22.515Z,11.37
2022-11-13T08:08:43.195Z,11.17
2022-11-13T08:19:04.520Z,11.19
2022-11-13T08:29:25.478Z,11.22
2022-11-13T08:39:45.894Z,11.20
2022-11-13T08:50:07.170Z,11.40
2022-11-13T09:00:30.161Z,11.43
2022-11-13T09:10:50.641Z,11.56
2022-11-13T09:21:11.288Z,11.60
2022-11-13T09:31:31.908Z,11.46
2022-11-13T09:42:12.932Z,11.29
2022-11-13T09:52:38.265Z,11.38
2022-11-13T10:03:59.289Z,11.70
2022-11-13T10:14:23.751Z,12.08
2022-11-13T10:24:45.957Z,12.64
2022-11-13T10:35:06.422Z,12.98
2022-11-13T10:45:27.331Z,12.86
2022-11-13T10:55:51.898Z,12.90
2022-11-13T11:06:12.607Z,12.76
2022-11-13T11:16:33.282Z,12.23
2022-11-13T11:26:59.507Z,12.12
2022-11-13T11:37:23.909Z,12.37
2022-11-13T11:47:47.436Z,12.54
2022-11-13T11:58:43.526Z,12.44
2022-11-13T12:09:15.518Z,12.28
2022-11-13T12:19:59.421Z,12.09
2022-11-13T12:30:24.664Z,11.99
2022-11-13T12:40:51.604Z,12.01
2022-11-13T12:51:20.801Z,11.96
2022-11-13T13:02:11.993Z,11.80
2022-11-13T13:12:52.087Z,11.86
2022-11-13T13:23:16.049Z,11.85
2022-11-13T13:33:57.939Z,11.67
2022-11-13T13:44:37.996Z,11.41
2022-11-13T13:55:01.822Z,11.07
2022-11-13T14:05:27.748Z,11.00
2022-11-13T14:15:48.745Z,10.96
2022-11-13T14:26:13.646Z,10.80
2022-11-13T14:36:34.841Z,10.52
2022-11-13T14:47:05.856Z,10.46
2022-11-13T14:57:26.168Z,10.36
2022-11-13T15:07:47.083Z,10.18
2022-11-13T15:18:14.599Z,9.95
2022-11-13T15:28:36.261Z,9.91
2022-11-13T15:38:57.034Z,9.97
2022-11-13T15:49:17.594Z,9.95
2022-11-13T15:59:39.144Z,9.75
2022-11-13T16:10:00.750Z,9.51
2022-11-13T16:20:23.161Z,9.43
2022-11-13T16:30:45.456Z,9.43
2022-11-13T16:41:06.192Z,9.28
2022-11-13T16:51:28.228Z,9.16
2022-11-13T17:01:48.930Z,9.19
2022-11-13T17:12:11.917Z,9.25
2022-11-13T17:22:32.558Z,9.27
2022-11-13T17:32:53.546Z,9.24
2022-11-13T17:43:14.303Z,9.08
2022-11-13T17:53:35.263Z,8.90
2022-11-13T18:03:57.774Z,8.91
2022-11-13T18:14:20.638Z,8.97
2022-11-13T18:24:41.862Z,9.03
2022-11-13T18:35:02.979Z,9.06
2022-11-13T18:45:23.782Z,8.96
2022-11-13T18:55:45.014Z,8.79
2022-11-13T19:06:07.974Z,8.70
2022-11-13T19:16:33.492Z,8.78
2022-11-13T19:26:54.552Z,8.87
2022-11-13T19:37:19.071Z,8.88
2022-11-13T19:47:40.077Z,8.73
2022-11-13T19:58:02.054Z,8.60
2022-11-13T20:08:26.869Z,8.62
2022-11-13T20:18:48.673Z,8.69
2022-11-13T20:29:09.587Z,8.78
2022-11-13T20:39:31.229Z,8.65
2022-11-13T20:49:52.033Z,8.49
2022-11-13T21:00:13.344Z,8.47
2022-11-13T21:10:34.375Z,8.50
2022-11-13T21:20:55.131Z,8.60
2022-11-13T21:31:22.609Z,8.64
2022-11-13T21:41:48.295Z,8.53
2022-11-13T21:52:13.639Z,8.48
2022-11-13T22:02:48.679Z,8.52
2022-11-13T22:13:14.212Z,8.53
2022-11-13T22:23:38.847Z,8.60
2022-11-13T22:34:03.335Z,8.64
2022-11-13T22:44:35.205Z,8.64
2022-11-13T22:55:09.774Z,8.50
2022-11-13T23:05:36.889Z,8.42
2022-11-13T23:16:04.149Z,8.53
2022-11-13T23:26:27.960Z,8.48
2022-11-13T23:36:48.609Z,8.33
2022-11-13T23:47:12.718Z,8.38
2022-11-13T23:57:33.980Z,8.47
